sensor_id;sensor_type;location;lat;lon;timestamp;temperature;humidity
25991;DHT22;13779;-33.886;151.198;2023-07-13T00:01:16;12.80;99.90
25991;DHT22;13779;-33.886;151.198;2023-07-13T00:03:47;12.90;99.90
25991;DHT22;13779;-33.886;151.198;2023-07-13T00:06:18;12.90;99.90
25991;DHT22;13779;-33.886;151.198;2023-07-13T00:08:49;13.00;99.90
25991;DHT22;13779;-33.886;151.198;2023-07-13T00:11:19;13.10;99.90
25991;DHT22;13779;-33.886;151.198;2023-07-13T00:13:50;13.20;99.90
25991;DHT22;13779;-33.886;151.198;2023-07-13T00:16:20;13.30;99.90
25991;DHT22;13779;-33.886;151.198;2023-07-13T00:18:51;13.30;99.90
25991;DHT22;13779;-33.886;151.198;2023-07-13T00:21:22;13.40;99.90
25991;DHT22;13779;-33.886;151.198;2023-07-13T00:23:52;13.40;99.90
25991;DHT22;13779;-33.886;151.198;2023-07-13T00:26:22;13.60;99.90
25991;DHT22;13779;-33.886;151.198;2023-07-13T00:28:52;13.70;99.90
25991;DHT22;13779;-33.886;151.198;2023-07-13T00:31:22;13.80;99.90
25991;DHT22;13779;-33.886;151.198;2023-07-13T00:33:52;13.90;99.90
25991;DHT22;13779;-33.886;151.198;2023-07-13T00:36:23;13.90;99.90
25991;DHT22;13779;-33.886;151.198;2023-07-13T00:38:53;14.00;99.90
25991;DHT22;13779;-33.886;151.198;2023-07-13T00:41:23;14.00;99.90
25991;DHT22;13779;-33.886;151.198;2023-07-13T00:43:53;14.10;99.90
25991;DHT22;13779;-33.886;151.198;2023-07-13T00:46:27;14.10;99.90
25991;DHT22;13779;-33.886;151.198;2023-07-13T00:49:04;14.20;99.90
25991;DHT22;13779;-33.886;151.198;2023-07-13T00:51:45;14.30;99.90
25991;DHT22;13779;-33.886;151.198;2023-07-13T00:54:24;14.40;99.90
25991;DHT22;13779;-33.886;151.198;2023-07-13T00:56:59;14.40;99.90
25991;DHT22;13779;-33.886;151.198;2023-07-13T00:59:31;14.50;99.90
25991;DHT22;13779;-33.886;151.198;2023-07-13T01:02:02;14.70;99.90
25991;DHT22;13779;-33.886;151.198;2023-07-13T01:04:32;14.70;99.90
25991;DHT22;13779;-33.886;151.198;2023-07-13T01:07:03;14.80;99.90
25991;DHT22;13779;-33.886;151.198;2023-07-13T01:09:33;14.90;99.90
25991;DHT22;13779;-33.886;151.198;2023-07-13T01:12:04;15.00;99.90
25991;DHT22;13779;-33.886;151.198;2023-07-13T01:14:34;15.00;99.90
25991;DHT22;13779;-33.886;151.198;2023-07-13T01:17:04;15.00;99.90
25991;DHT22;13779;-33.886;151.198;2023-07-13T01:19:43;15.10;99.90
25991;DHT22;13779;-33.886;151.198;2023-07-13T01:22:18;15.30;99.90
25991;DHT22;13779;-33.886;151.198;2023-07-13T01:24:48;15.30;99.90
25991;DHT22;13779;-33.886;151.198;2023-07-13T01:27:23;15.40;99.90
25991;DHT22;13779;-33.886;151.198;2023-07-13T01:29:54;15.50;99.90
25991;DHT22;13779;-33.886;151.198;2023-07-13T01:32:31;15.60;99.90
25991;DHT22;13779;-33.886;151.198;2023-07-13T01:35:02;15.60;99.90
25991;DHT22;13779;-33.886;151.198;2023-07-13T01:37:32;15.60;99.90
25991;DHT22;13779;-33.886;151.198;2023-07-13T01:40:06;15.60;99.90
25991;DHT22;13779;-33.886;151.198;2023-07-13T01:42:37;15.70;99.90
25991;DHT22;13779;-33.886;151.198;2023-07-13T01:45:08;15.80;99.90
25991;DHT22;13779;-33.886;151.198;2023-07-13T01:47:39;15.80;99.90
25991;DHT22;13779;-33.886;151.198;2023-07-13T01:50:09;15.80;99.90
25991;DHT22;13779;-33.886;151.198;2023-07-13T01:52:40;15.90;99.90
25991;DHT22;13779;-33.886;151.198;2023-07-13T01:55:10;15.90;99.90
25991;DHT22;13779;-33.886;151.198;2023-07-13T01:57:40;16.00;99.90
25991;DHT22;13779;-33.886;151.198;2023-07-13T02:00:12;16.00;99.90
25991;DHT22;13779;-33.886;151.198;2023-07-13T02:02:43;16.10;99.90
25991;DHT22;13779;-33.886;151.198;2023-07-13T02:05:14;16.20;99.90
25991;DHT22;13779;-33.886;151.198;2023-07-13T02:07:44;16.20;99.90
25991;DHT22;13779;-33.886;151.198;2023-07-13T02:10:14;16.30;99.90
25991;DHT22;13779;-33.886;151.198;2023-07-13T02:12:44;16.40;99.90
25991;DHT22;13779;-33.886;151.198;2023-07-13T02:15:15;16.40;99.90
25991;DHT22;13779;-33.886;151.198;2023-07-13T02:17:45;16.50;99.90
25991;DHT22;13779;-33.886;151.198;2023-07-13T02:20:15;16.50;99.90
25991;DHT22;13779;-33.886;151.198;2023-07-13T02:22:45;16.50;99.90
25991;DHT22;13779;-33.886;151.198;2023-07-13T02:25:16;16.60;99.90
25991;DHT22;13779;-33.886;151.198;2023-07-13T02:27:46;16.70;99.90
25991;DHT22;13779;-33.886;151.198;2023-07-13T02:30:16;16.70;99.90
25991;DHT22;13779;-33.886;151.198;2023-07-13T02:32:46;16.80;99.90
25991;DHT22;13779;-33.886;151.198;2023-07-13T02:35:17;16.80;99.90
25991;DHT22;13779;-33.886;151.198;2023-07-13T02:37:47;16.90;99.90
25991;DHT22;13779;-33.886;151.198;2023-07-13T02:40:17;16.90;99.90
25991;DHT22;13779;-33.886;151.198;2023-07-13T02:42:47;17.00;99.90
25991;DHT22;13779;-33.886;151.198;2023-07-13T02:45:17;17.00;99.90
25991;DHT22;13779;-33.886;151.198;2023-07-13T02:47:47;17.10;99.90
25991;DHT22;13779;-33.886;151.198;2023-07-13T02:50:17;17.20;99.90
25991;DHT22;13779;-33.886;151.198;2023-07-13T02:52:47;17.30;99.90
25991;DHT22;13779;-33.886;151.198;2023-07-13T02:55:18;17.40;99.90
25991;DHT22;13779;-33.886;151.198;2023-07-13T02:57:48;17.50;99.90
25991;DHT22;13779;-33.886;151.198;2023-07-13T03:00:19;17.60;99.90
25991;DHT22;13779;-33.886;151.198;2023-07-13T03:02:49;17.70;99.90
25991;DHT22;13779;-33.886;151.198;2023-07-13T03:05:19;17.90;99.90
25991;DHT22;13779;-33.886;151.198;2023-07-13T03:07:49;17.90;99.90
25991;DHT22;13779;-33.886;151.198;2023-07-13T03:10:20;18.00;99.90
25991;DHT22;13779;-33.886;151.198;2023-07-13T03:12:51;18.20;99.90
25991;DHT22;13779;-33.886;151.198;2023-07-13T03:15:21;18.40;99.90
25991;DHT22;13779;-33.886;151.198;2023-07-13T03:17:51;18.60;99.90
25991;DHT22;13779;-33.886;151.198;2023-07-13T03:20:22;18.80;99.90
25991;DHT22;13779;-33.886;151.198;2023-07-13T03:22:52;19.00;99.90
25991;DHT22;13779;-33.886;151.198;2023-07-13T03:25:22;19.00;99.90
25991;DHT22;13779;-33.886;151.198;2023-07-13T03:27:52;19.20;99.90
25991;DHT22;13779;-33.886;151.198;2023-07-13T03:30:22;19.40;99.90
25991;DHT22;13779;-33.886;151.198;2023-07-13T03:32:52;19.70;99.90
25991;DHT22;13779;-33.886;151.198;2023-07-13T03:35:23;19.60;99.90
25991;DHT22;13779;-33.886;151.198;2023-07-13T03:37:53;20.00;99.90
25991;DHT22;13779;-33.886;151.198;2023-07-13T03:40:24;20.20;99.90
25991;DHT22;13779;-33.886;151.198;2023-07-13T03:42:55;20.50;99.90
25991;DHT22;13779;-33.886;151.198;2023-07-13T03:45:25;20.80;99.90
25991;DHT22;13779;-33.886;151.198;2023-07-13T03:47:55;20.90;99.90
25991;DHT22;13779;-33.886;151.198;2023-07-13T03:50:25;21.30;99.90
25991;DHT22;13779;-33.886;151.198;2023-07-13T03:52:57;21.60;99.90
25991;DHT22;13779;-33.886;151.198;2023-07-13T03:55:27;21.60;99.90
25991;DHT22;13779;-33.886;151.198;2023-07-13T03:58:24;21.30;99.90
25991;DHT22;13779;-33.886;151.198;2023-07-13T04:00:52;21.30;99.90
25991;DHT22;13779;-33.886;151.198;2023-07-13T04:03:23;21.20;99.90
25991;DHT22;13779;-33.886;151.198;2023-07-13T04:05:54;21.20;99.90
25991;DHT22;13779;-33.886;151.198;2023-07-13T04:08:25;21.20;99.90
25991;DHT22;13779;-33.886;151.198;2023-07-13T04:10:56;21.60;99.90
25991;DHT22;13779;-33.886;151.198;2023-07-13T04:13:26;21.60;99.90
25991;DHT22;13779;-33.886;151.198;2023-07-13T04:15:57;21.60;99.90
25991;DHT22;13779;-33.886;151.198;2023-07-13T04:18:27;21.80;99.90
25991;DHT22;13779;-33.886;151.198;2023-07-13T04:20:57;21.80;99.90
25991;DHT22;13779;-33.886;151.198;2023-07-13T04:23:27;22.00;99.90
25991;DHT22;13779;-33.886;151.198;2023-07-13T04:25:58;22.10;99.90
25991;DHT22;13779;-33.886;151.198;2023-07-13T04:28:28;22.10;99.90
25991;DHT22;13779;-33.886;151.198;2023-07-13T04:30:58;21.80;99.90
25991;DHT22;13779;-33.886;151.198;2023-07-13T04:33:28;21.90;99.90
25991;DHT22;13779;-33.886;151.198;2023-07-13T04:35:59;22.10;99.90
25991;DHT22;13779;-33.886;151.198;2023-07-13T04:38:32;22.10;99.60
25991;DHT22;13779;-33.886;151.198;2023-07-13T04:41:05;22.20;99.60
25991;DHT22;13779;-33.886;151.198;2023-07-13T04:43:35;22.40;99.20
25991;DHT22;13779;-33.886;151.198;2023-07-13T04:46:11;22.30;98.90
25991;DHT22;13779;-33.886;151.198;2023-07-13T04:48:42;22.10;98.80
25991;DHT22;13779;-33.886;151.198;2023-07-13T04:51:13;22.00;98.90
25991;DHT22;13779;-33.886;151.198;2023-07-13T04:53:43;21.80;99.60
25991;DHT22;13779;-33.886;151.198;2023-07-13T04:56:13;21.60;99.40
25991;DHT22;13779;-33.886;151.198;2023-07-13T04:58:43;21.60;99.70
25991;DHT22;13779;-33.886;151.198;2023-07-13T05:01:13;21.20;99.90
25991;DHT22;13779;-33.886;151.198;2023-07-13T05:03:43;21.00;99.60
25991;DHT22;13779;-33.886;151.198;2023-07-13T05:06:14;21.00;99.60
25991;DHT22;13779;-33.886;151.198;2023-07-13T05:08:44;20.90;99.90
25991;DHT22;13779;-33.886;151.198;2023-07-13T05:11:14;20.80;99.90
25991;DHT22;13779;-33.886;151.198;2023-07-13T05:13:44;20.60;99.90
25991;DHT22;13779;-33.886;151.198;2023-07-13T05:16:14;20.50;99.20
25991;DHT22;13779;-33.886;151.198;2023-07-13T05:18:45;20.20;99.90
25991;DHT22;13779;-33.886;151.198;2023-07-13T05:21:15;20.10;99.90
25991;DHT22;13779;-33.886;151.198;2023-07-13T05:23:47;19.80;99.90
25991;DHT22;13779;-33.886;151.198;2023-07-13T05:26:26;19.70;99.90
25991;DHT22;13779;-33.886;151.198;2023-07-13T05:28:56;19.50;99.90
25991;DHT22;13779;-33.886;151.198;2023-07-13T05:31:26;19.40;99.90
25991;DHT22;13779;-33.886;151.198;2023-07-13T05:33:57;19.40;99.90
25991;DHT22;13779;-33.886;151.198;2023-07-13T05:36:27;19.30;99.90
25991;DHT22;13779;-33.886;151.198;2023-07-13T05:38:58;19.30;99.90
25991;DHT22;13779;-33.886;151.198;2023-07-13T05:41:28;19.20;99.90
25991;DHT22;13779;-33.886;151.198;2023-07-13T05:43:58;19.10;99.90
25991;DHT22;13779;-33.886;151.198;2023-07-13T05:46:29;19.00;99.90
25991;DHT22;13779;-33.886;151.198;2023-07-13T05:49:00;18.80;99.90
25991;DHT22;13779;-33.886;151.198;2023-07-13T05:51:31;18.70;99.90
25991;DHT22;13779;-33.886;151.198;2023-07-13T05:54:01;18.60;99.90
25991;DHT22;13779;-33.886;151.198;2023-07-13T05:56:32;18.40;99.90
25991;DHT22;13779;-33.886;151.198;2023-07-13T05:59:02;18.20;99.90
25991;DHT22;13779;-33.886;151.198;2023-07-13T06:01:32;18.20;99.90
25991;DHT22;13779;-33.886;151.198;2023-07-13T06:04:03;18.00;99.90
25991;DHT22;13779;-33.886;151.198;2023-07-13T06:06:34;17.90;99.90
25991;DHT22;13779;-33.886;151.198;2023-07-13T06:09:04;17.90;99.90
25991;DHT22;13779;-33.886;151.198;2023-07-13T06:11:34;17.80;99.90
25991;DHT22;13779;-33.886;151.198;2023-07-13T06:14:04;17.80;99.90
25991;DHT22;13779;-33.886;151.198;2023-07-13T06:16:34;17.70;99.90
25991;DHT22;13779;-33.886;151.198;2023-07-13T06:19:04;17.70;99.90
25991;DHT22;13779;-33.886;151.198;2023-07-13T06:21:35;17.60;99.90
25991;DHT22;13779;-33.886;151.198;2023-07-13T06:24:05;17.60;99.90
25991;DHT22;13779;-33.886;151.198;2023-07-13T06:26:36;17.60;99.90
25991;DHT22;13779;-33.886;151.198;2023-07-13T06:29:06;17.50;99.90
25991;DHT22;13779;-33.886;151.198;2023-07-13T06:31:36;17.50;99.90
25991;DHT22;13779;-33.886;151.198;2023-07-13T06:34:06;17.40;99.90
25991;DHT22;13779;-33.886;151.198;2023-07-13T06:36:36;17.40;99.90
25991;DHT22;13779;-33.886;151.198;2023-07-13T06:39:08;17.30;99.90
25991;DHT22;13779;-33.886;151.198;2023-07-13T06:41:38;17.30;99.90
25991;DHT22;13779;-33.886;151.198;2023-07-13T06:44:08;17.30;99.90
25991;DHT22;13779;-33.886;151.198;2023-07-13T06:46:38;17.20;99.90
25991;DHT22;13779;-33.886;151.198;2023-07-13T06:49:09;17.10;99.90
25991;DHT22;13779;-33.886;151.198;2023-07-13T06:51:40;17.10;99.90
25991;DHT22;13779;-33.886;151.198;2023-07-13T06:54:10;17.00;99.90
25991;DHT22;13779;-33.886;151.198;2023-07-13T06:56:40;17.00;99.90
25991;DHT22;13779;-33.886;151.198;2023-07-13T06:59:10;16.90;99.90
25991;DHT22;13779;-33.886;151.198;2023-07-13T07:01:40;16.90;99.90
25991;DHT22;13779;-33.886;151.198;2023-07-13T07:04:11;16.80;99.90
25991;DHT22;13779;-33.886;151.198;2023-07-13T07:06:41;16.70;99.90
25991;DHT22;13779;-33.886;151.198;2023-07-13T07:09:11;16.70;99.90
25991;DHT22;13779;-33.886;151.198;2023-07-13T07:11:41;16.60;99.90
25991;DHT22;13779;-33.886;151.198;2023-07-13T07:14:28;16.50;99.90
25991;DHT22;13779;-33.886;151.198;2023-07-13T07:16:58;16.40;99.90
25991;DHT22;13779;-33.886;151.198;2023-07-13T07:19:30;16.30;99.90
25991;DHT22;13779;-33.886;151.198;2023-07-13T07:22:00;16.30;99.90
25991;DHT22;13779;-33.886;151.198;2023-07-13T07:24:30;16.20;99.90
25991;DHT22;13779;-33.886;151.198;2023-07-13T07:27:01;16.10;99.90
25991;DHT22;13779;-33.886;151.198;2023-07-13T07:29:33;16.00;99.90
25991;DHT22;13779;-33.886;151.198;2023-07-13T07:32:13;16.00;99.90
25991;DHT22;13779;-33.886;151.198;2023-07-13T07:35:03;16.00;99.90
25991;DHT22;13779;-33.886;151.198;2023-07-13T07:37:33;16.00;99.90
25991;DHT22;13779;-33.886;151.198;2023-07-13T07:40:07;15.90;99.90
25991;DHT22;13779;-33.886;151.198;2023-07-13T07:42:43;15.90;99.90
25991;DHT22;13779;-33.886;151.198;2023-07-13T07:45:13;16.00;99.90
25991;DHT22;13779;-33.886;151.198;2023-07-13T07:47:43;16.00;99.90
25991;DHT22;13779;-33.886;151.198;2023-07-13T07:50:14;16.10;99.90
25991;DHT22;13779;-33.886;151.198;2023-07-13T07:52:45;16.10;99.90
25991;DHT22;13779;-33.886;151.198;2023-07-13T07:55:15;16.10;99.90
25991;DHT22;13779;-33.886;151.198;2023-07-13T07:57:48;16.10;99.90
25991;DHT22;13779;-33.886;151.198;2023-07-13T08:00:21;16.10;99.90
25991;DHT22;13779;-33.886;151.198;2023-07-13T08:02:54;16.10;99.90
25991;DHT22;13779;-33.886;151.198;2023-07-13T08:05:44;16.10;99.90
25991;DHT22;13779;-33.886;151.198;2023-07-13T08:08:35;16.00;99.90
25991;DHT22;13779;-33.886;151.198;2023-07-13T08:11:07;16.00;99.90
25991;DHT22;13779;-33.886;151.198;2023-07-13T08:13:41;16.00;99.90
25991;DHT22;13779;-33.886;151.198;2023-07-13T08:16:11;15.90;99.90
25991;DHT22;13779;-33.886;151.198;2023-07-13T08:18:41;15.90;99.90
25991;DHT22;13779;-33.886;151.198;2023-07-13T08:21:11;15.90;99.90
25991;DHT22;13779;-33.886;151.198;2023-07-13T08:23:41;15.80;99.90
25991;DHT22;13779;-33.886;151.198;2023-07-13T08:26:11;15.80;99.90
25991;DHT22;13779;-33.886;151.198;2023-07-13T08:28:42;15.70;99.90
25991;DHT22;13779;-33.886;151.198;2023-07-13T08:31:12;15.60;99.90
25991;DHT22;13779;-33.886;151.198;2023-07-13T08:33:43;15.60;99.90
25991;DHT22;13779;-33.886;151.198;2023-07-13T08:36:13;15.60;99.90
25991;DHT22;13779;-33.886;151.198;2023-07-13T08:38:44;15.50;99.90
25991;DHT22;13779;-33.886;151.198;2023-07-13T08:41:18;15.40;99.90
25991;DHT22;13779;-33.886;151.198;2023-07-13T08:43:51;15.40;99.90
25991;DHT22;13779;-33.886;151.198;2023-07-13T08:49:16;15.30;99.90
25991;DHT22;13779;-33.886;151.198;2023-07-13T08:52:00;15.20;99.90
25991;DHT22;13779;-33.886;151.198;2023-07-13T08:54:40;15.20;99.90
25991;DHT22;13779;-33.886;151.198;2023-07-13T08:57:18;15.20;99.90
25991;DHT22;13779;-33.886;151.198;2023-07-13T08:59:49;15.20;99.90
25991;DHT22;13779;-33.886;151.198;2023-07-13T09:05:38;15.10;99.90
25991;DHT22;13779;-33.886;151.198;2023-07-13T09:08:44;15.00;99.90
25991;DHT22;13779;-33.886;151.198;2023-07-13T09:12:14;15.00;99.90
25991;DHT22;13779;-33.886;151.198;2023-07-13T09:17:24;14.90;99.90
25991;DHT22;13779;-33.886;151.198;2023-07-13T09:20:12;14.80;99.90
25991;DHT22;13779;-33.886;151.198;2023-07-13T09:22:47;14.80;99.90
25991;DHT22;13779;-33.886;151.198;2023-07-13T09:25:23;14.70;99.90
25991;DHT22;13779;-33.886;151.198;2023-07-13T09:28:16;14.70;99.90
25991;DHT22;13779;-33.886;151.198;2023-07-13T09:33:27;14.70;99.90
25991;DHT22;13779;-33.886;151.198;2023-07-13T09:35:59;14.60;99.90
25991;DHT22;13779;-33.886;151.198;2023-07-13T09:38:30;14.70;99.90
25991;DHT22;13779;-33.886;151.198;2023-07-13T09:44:06;14.60;99.90
25991;DHT22;13779;-33.886;151.198;2023-07-13T09:46:46;14.60;99.90
25991;DHT22;13779;-33.886;151.198;2023-07-13T09:49:17;14.60;99.90
25991;DHT22;13779;-33.886;151.198;2023-07-13T09:51:48;14.50;99.90
25991;DHT22;13779;-33.886;151.198;2023-07-13T09:54:22;14.60;99.90
25991;DHT22;13779;-33.886;151.198;2023-07-13T09:56:57;14.50;99.90
25991;DHT22;13779;-33.886;151.198;2023-07-13T09:59:39;14.50;99.90
25991;DHT22;13779;-33.886;151.198;2023-07-13T10:02:32;14.60;99.90
25991;DHT22;13779;-33.886;151.198;2023-07-13T10:05:14;14.60;99.90
25991;DHT22;13779;-33.886;151.198;2023-07-13T10:07:45;14.60;99.90
25991;DHT22;13779;-33.886;151.198;2023-07-13T10:10:19;14.50;99.90
25991;DHT22;13779;-33.886;151.198;2023-07-13T10:12:50;14.50;99.90
25991;DHT22;13779;-33.886;151.198;2023-07-13T10:15:25;14.60;99.90
25991;DHT22;13779;-33.886;151.198;2023-07-13T10:17:56;14.50;99.90
25991;DHT22;13779;-33.886;151.198;2023-07-13T10:20:28;14.50;99.90
25991;DHT22;13779;-33.886;151.198;2023-07-13T10:23:21;14.50;99.90
25991;DHT22;13779;-33.886;151.198;2023-07-13T10:25:55;14.50;99.90
25991;DHT22;13779;-33.886;151.198;2023-07-13T10:28:36;14.50;99.90
25991;DHT22;13779;-33.886;151.198;2023-07-13T10:31:12;14.40;99.90
25991;DHT22;13779;-33.886;151.198;2023-07-13T10:33:43;14.40;99.90
25991;DHT22;13779;-33.886;151.198;2023-07-13T10:39:04;14.40;99.90
25991;DHT22;13779;-33.886;151.198;2023-07-13T10:41:39;14.40;99.90
25991;DHT22;13779;-33.886;151.198;2023-07-13T10:44:28;14.40;99.90
25991;DHT22;13779;-33.886;151.198;2023-07-13T10:47:11;14.40;99.90
25991;DHT22;13779;-33.886;151.198;2023-07-13T10:49:44;14.30;99.90
25991;DHT22;13779;-33.886;151.198;2023-07-13T10:52:45;14.30;99.90
25991;DHT22;13779;-33.886;151.198;2023-07-13T10:58:35;14.30;99.90
25991;DHT22;13779;-33.886;151.198;2023-07-13T11:01:14;14.20;99.90
25991;DHT22;13779;-33.886;151.198;2023-07-13T11:03:55;14.20;99.90
25991;DHT22;13779;-33.886;151.198;2023-07-13T11:09:30;14.10;99.90
25991;DHT22;13779;-33.886;151.198;2023-07-13T11:12:05;14.10;99.90
25991;DHT22;13779;-33.886;151.198;2023-07-13T11:17:51;14.00;99.90
25991;DHT22;13779;-33.886;151.198;2023-07-13T11:20:34;14.00;99.90
25991;DHT22;13779;-33.886;151.198;2023-07-13T11:25:48;14.00;99.90
25991;DHT22;13779;-33.886;151.198;2023-07-13T11:28:23;13.90;99.90
25991;DHT22;13779;-33.886;151.198;2023-07-13T11:36:16;14.00;99.90
25991;DHT22;13779;-33.886;151.198;2023-07-13T11:39:51;14.00;99.90
25991;DHT22;13779;-33.886;151.198;2023-07-13T11:42:02;14.00;99.90
25991;DHT22;13779;-33.886;151.198;2023-07-13T11:44:34;13.90;99.90
25991;DHT22;13779;-33.886;151.198;2023-07-13T11:47:11;13.90;99.90
25991;DHT22;13779;-33.886;151.198;2023-07-13T11:49:45;13.90;99.90
25991;DHT22;13779;-33.886;151.198;2023-07-13T11:52:23;13.80;99.90
25991;DHT22;13779;-33.886;151.198;2023-07-13T11:54:57;13.90;99.90
25991;DHT22;13779;-33.886;151.198;2023-07-13T11:57:31;14.00;99.90
25991;DHT22;13779;-33.886;151.198;2023-07-13T12:00:11;13.90;99.90
25991;DHT22;13779;-33.886;151.198;2023-07-13T12:02:46;14.00;99.90
25991;DHT22;13779;-33.886;151.198;2023-07-13T12:05:19;14.00;99.90
25991;DHT22;13779;-33.886;151.198;2023-07-13T12:07:51;14.00;99.90
25991;DHT22;13779;-33.886;151.198;2023-07-13T12:10:27;14.00;99.90
25991;DHT22;13779;-33.886;151.198;2023-07-13T12:13:08;14.00;99.90
25991;DHT22;13779;-33.886;151.198;2023-07-13T12:15:41;13.90;99.90
25991;DHT22;13779;-33.886;151.198;2023-07-13T12:18:31;13.90;99.90
25991;DHT22;13779;-33.886;151.198;2023-07-13T12:21:03;13.80;99.90
25991;DHT22;13779;-33.886;151.198;2023-07-13T12:23:35;13.80;99.90
25991;DHT22;13779;-33.886;151.198;2023-07-13T12:26:06;13.80;99.90
25991;DHT22;13779;-33.886;151.198;2023-07-13T12:28:45;13.80;99.90
25991;DHT22;13779;-33.886;151.198;2023-07-13T12:34:09;13.80;99.90
25991;DHT22;13779;-33.886;151.198;2023-07-13T12:39:43;13.80;99.90
25991;DHT22;13779;-33.886;151.198;2023-07-13T12:45:00;13.90;99.90
25991;DHT22;13779;-33.886;151.198;2023-07-13T12:47:38;13.90;99.90
25991;DHT22;13779;-33.886;151.198;2023-07-13T12:50:17;13.90;99.90
25991;DHT22;13779;-33.886;151.198;2023-07-13T12:53:03;13.90;99.90
25991;DHT22;13779;-33.886;151.198;2023-07-13T12:56:04;13.90;99.90
25991;DHT22;13779;-33.886;151.198;2023-07-13T12:58:42;13.80;99.90
25991;DHT22;13779;-33.886;151.198;2023-07-13T13:01:14;13.70;99.90
25991;DHT22;13779;-33.886;151.198;2023-07-13T13:03:50;13.80;99.90
25991;DHT22;13779;-33.886;151.198;2023-07-13T13:06:28;13.80;99.90
25991;DHT22;13779;-33.886;151.198;2023-07-13T13:09:00;13.70;99.90
25991;DHT22;13779;-33.886;151.198;2023-07-13T13:11:31;13.60;99.90
25991;DHT22;13779;-33.886;151.198;2023-07-13T13:14:01;13.50;99.90
25991;DHT22;13779;-33.886;151.198;2023-07-13T13:16:35;13.40;99.90
25991;DHT22;13779;-33.886;151.198;2023-07-13T13:19:18;13.40;99.90
25991;DHT22;13779;-33.886;151.198;2023-07-13T13:21:48;13.40;99.90
25991;DHT22;13779;-33.886;151.198;2023-07-13T13:24:27;13.40;99.90
25991;DHT22;13779;-33.886;151.198;2023-07-13T13:26:58;13.40;99.90
25991;DHT22;13779;-33.886;151.198;2023-07-13T13:29:32;13.30;99.90
25991;DHT22;13779;-33.886;151.198;2023-07-13T13:32:02;13.30;99.90
25991;DHT22;13779;-33.886;151.198;2023-07-13T13:34:34;13.30;99.90
25991;DHT22;13779;-33.886;151.198;2023-07-13T13:37:31;13.20;99.90
25991;DHT22;13779;-33.886;151.198;2023-07-13T13:40:00;13.20;99.90
25991;DHT22;13779;-33.886;151.198;2023-07-13T13:42:36;13.10;99.90
25991;DHT22;13779;-33.886;151.198;2023-07-13T13:45:09;13.00;99.90
25991;DHT22;13779;-33.886;151.198;2023-07-13T13:47:40;13.00;99.90
25991;DHT22;13779;-33.886;151.198;2023-07-13T13:50:19;13.00;99.90
25991;DHT22;13779;-33.886;151.198;2023-07-13T13:52:51;12.90;99.90
25991;DHT22;13779;-33.886;151.198;2023-07-13T13:55:21;12.90;99.90
25991;DHT22;13779;-33.886;151.198;2023-07-13T13:57:53;12.90;99.90
25991;DHT22;13779;-33.886;151.198;2023-07-13T14:00:23;12.90;99.90
25991;DHT22;13779;-33.886;151.198;2023-07-13T14:02:54;12.90;99.90
25991;DHT22;13779;-33.886;151.198;2023-07-13T14:05:27;12.90;99.90
25991;DHT22;13779;-33.886;151.198;2023-07-13T14:07:57;12.80;99.90
25991;DHT22;13779;-33.886;151.198;2023-07-13T14:10:29;12.80;99.90
25991;DHT22;13779;-33.886;151.198;2023-07-13T14:12:59;12.80;99.90
25991;DHT22;13779;-33.886;151.198;2023-07-13T14:15:30;12.70;99.90
25991;DHT22;13779;-33.886;151.198;2023-07-13T14:18:00;12.70;99.90
25991;DHT22;13779;-33.886;151.198;2023-07-13T14:20:30;12.70;99.90
25991;DHT22;13779;-33.886;151.198;2023-07-13T14:23:00;12.60;99.90
25991;DHT22;13779;-33.886;151.198;2023-07-13T14:25:31;12.60;99.90
25991;DHT22;13779;-33.886;151.198;2023-07-13T14:28:04;12.60;99.90
25991;DHT22;13779;-33.886;151.198;2023-07-13T14:30:40;12.60;99.90
25991;DHT22;13779;-33.886;151.198;2023-07-13T14:33:12;12.60;99.90
25991;DHT22;13779;-33.886;151.198;2023-07-13T14:35:42;12.60;99.90
25991;DHT22;13779;-33.886;151.198;2023-07-13T14:38:15;12.70;99.90
25991;DHT22;13779;-33.886;151.198;2023-07-13T14:40:46;12.70;99.90
25991;DHT22;13779;-33.886;151.198;2023-07-13T14:43:17;12.70;99.90
25991;DHT22;13779;-33.886;151.198;2023-07-13T14:45:49;12.70;99.90
25991;DHT22;13779;-33.886;151.198;2023-07-13T14:48:24;12.60;99.90
25991;DHT22;13779;-33.886;151.198;2023-07-13T14:50:59;12.50;99.90
25991;DHT22;13779;-33.886;151.198;2023-07-13T14:53:29;12.50;99.90
25991;DHT22;13779;-33.886;151.198;2023-07-13T14:55:59;12.60;99.90
25991;DHT22;13779;-33.886;151.198;2023-07-13T14:58:29;12.50;99.90
25991;DHT22;13779;-33.886;151.198;2023-07-13T15:01:01;12.50;99.90
25991;DHT22;13779;-33.886;151.198;2023-07-13T15:03:31;12.50;99.90
25991;DHT22;13779;-33.886;151.198;2023-07-13T15:06:07;12.50;99.90
25991;DHT22;13779;-33.886;151.198;2023-07-13T15:08:39;12.50;99.90
25991;DHT22;13779;-33.886;151.198;2023-07-13T15:11:12;12.50;99.90
25991;DHT22;13779;-33.886;151.198;2023-07-13T15:13:42;12.60;99.90
25991;DHT22;13779;-33.886;151.198;2023-07-13T15:16:23;12.60;99.90
25991;DHT22;13779;-33.886;151.198;2023-07-13T15:18:54;12.60;99.90
25991;DHT22;13779;-33.886;151.198;2023-07-13T15:21:25;12.60;99.90
25991;DHT22;13779;-33.886;151.198;2023-07-13T15:24:00;12.60;99.90
25991;DHT22;13779;-33.886;151.198;2023-07-13T15:26:31;12.60;99.90
25991;DHT22;13779;-33.886;151.198;2023-07-13T15:29:03;12.60;99.90
25991;DHT22;13779;-33.886;151.198;2023-07-13T15:31:34;12.60;99.90
25991;DHT22;13779;-33.886;151.198;2023-07-13T15:34:18;12.60;99.90
25991;DHT22;13779;-33.886;151.198;2023-07-13T15:36:50;12.60;99.90
25991;DHT22;13779;-33.886;151.198;2023-07-13T15:39:20;12.60;99.90
25991;DHT22;13779;-33.886;151.198;2023-07-13T15:41:52;12.70;99.90
25991;DHT22;13779;-33.886;151.198;2023-07-13T15:44:31;12.60;99.90
25991;DHT22;13779;-33.886;151.198;2023-07-13T15:47:01;12.60;99.90
25991;DHT22;13779;-33.886;151.198;2023-07-13T15:49:32;12.70;99.90
25991;DHT22;13779;-33.886;151.198;2023-07-13T15:52:02;12.60;99.90
25991;DHT22;13779;-33.886;151.198;2023-07-13T15:54:33;12.60;99.90
25991;DHT22;13779;-33.886;151.198;2023-07-13T15:57:03;12.60;99.90
25991;DHT22;13779;-33.886;151.198;2023-07-13T15:59:35;12.60;99.90
25991;DHT22;13779;-33.886;151.198;2023-07-13T16:02:20;12.60;99.90
25991;DHT22;13779;-33.886;151.198;2023-07-13T16:04:50;12.60;99.90
25991;DHT22;13779;-33.886;151.198;2023-07-13T16:07:20;12.50;99.90